sensor_id;sensor_type;location;lat;lon;timestamp;noise_LAeq;noise_LA_min;noise_LA_max;noise_LA01;noise_LA95
58303;Laerm;44109;52.398;7.024;2023-03-14T00:02:23;48.15;32.22;58.56;;
58303;Laerm;44109;52.398;7.024;2023-03-14T00:04:54;50.36;34.22;78.76;;
58303;Laerm;44109;52.398;7.024;2023-03-14T00:07:23;49.10;33.56;57.99;;
58303;Laerm;44109;52.398;7.024;2023-03-14T00:09:51;48.09;32.38;58.62;;
58303;Laerm;44109;52.398;7.024;2023-03-14T00:12:19;48.33;32.32;58.07;;
58303;Laerm;44109;52.398;7.024;2023-03-14T00:14:46;48.44;34.61;58.20;;
58303;Laerm;44109;52.398;7.024;2023-03-14T00:17:14;49.05;33.03;61.55;;
58303;Laerm;44109;52.398;7.024;2023-03-14T00:19:42;48.13;32.86;57.83;;
58303;Laerm;44109;52.398;7.024;2023-03-14T00:22:09;48.13;32.74;59.45;;
58303;Laerm;44109;52.398;7.024;2023-03-14T00:24:38;48.21;32.93;58.04;;
58303;Laerm;44109;52.398;7.024;2023-03-14T00:27:06;48.16;34.17;57.95;;
58303;Laerm;44109;52.398;7.024;2023-03-14T00:29:33;48.55;34.53;58.40;;
58303;Laerm;44109;52.398;7.024;2023-03-14T00:32:01;48.29;34.65;58.08;;
58303;Laerm;44109;52.398;7.024;2023-03-14T00:34:29;47.97;33.00;57.81;;
58303;Laerm;44109;52.398;7.024;2023-03-14T00:36:57;48.08;33.64;58.18;;
58303;Laerm;44109;52.398;7.024;2023-03-14T00:39:24;48.19;33.21;59.37;;
58303;Laerm;44109;52.398;7.024;2023-03-14T00:41:53;48.30;33.66;57.86;;
58303;Laerm;44109;52.398;7.024;2023-03-14T00:44:21;48.50;35.13;57.98;;
58303;Laerm;44109;52.398;7.024;2023-03-14T00:46:49;49.10;34.38;64.19;;
58303;Laerm;44109;52.398;7.024;2023-03-14T00:49:17;48.29;33.75;58.55;;
58303;Laerm;44109;52.398;7.024;2023-03-14T00:51:44;48.35;33.48;58.00;;
58303;Laerm;44109;52.398;7.024;2023-03-14T00:54:12;48.54;34.64;57.92;;
58303;Laerm;44109;52.398;7.024;2023-03-14T00:56:39;48.70;35.52;61.74;;
58303;Laerm;44109;52.398;7.024;2023-03-14T00:59:08;51.80;33.69;73.30;;
58303;Laerm;44109;52.398;7.024;2023-03-14T01:01:36;49.23;34.65;64.41;;
58303;Laerm;44109;52.398;7.024;2023-03-14T01:04:04;48.69;35.23;57.92;;
58303;Laerm;44109;52.398;7.024;2023-03-14T01:06:33;49.02;33.86;57.95;;
58303;Laerm;44109;52.398;7.024;2023-03-14T01:09:00;49.05;34.80;59.66;;
58303;Laerm;44109;52.398;7.024;2023-03-14T01:11:31;48.75;36.03;62.34;;
58303;Laerm;44109;52.398;7.024;2023-03-14T01:14:00;50.20;38.84;60.72;;
58303;Laerm;44109;52.398;7.024;2023-03-14T01:16:32;50.68;35.68;68.18;;
58303;Laerm;44109;52.398;7.024;2023-03-14T01:19:00;50.93;41.59;61.59;;
58303;Laerm;44109;52.398;7.024;2023-03-14T01:21:31;49.90;37.59;63.00;;
58303;Laerm;44109;52.398;7.024;2023-03-14T01:24:00;50.68;38.91;63.75;;
58303;Laerm;44109;52.398;7.024;2023-03-14T01:26:32;50.96;39.68;64.62;;
58303;Laerm;44109;52.398;7.024;2023-03-14T01:29:00;52.70;41.48;61.83;;
58303;Laerm;44109;52.398;7.024;2023-03-14T01:31:29;53.74;43.50;66.08;;
58303;Laerm;44109;52.398;7.024;2023-03-14T01:33:57;57.46;41.26;74.91;;
58303;Laerm;44109;52.398;7.024;2023-03-14T01:36:25;55.06;44.59;75.51;;
58303;Laerm;44109;52.398;7.024;2023-03-14T01:38:52;60.82;47.03;85.40;;
58303;Laerm;44109;52.398;7.024;2023-03-14T01:41:24;54.91;38.51;79.35;;
58303;Laerm;44109;52.398;7.024;2023-03-14T01:43:52;50.55;39.94;61.08;;
58303;Laerm;44109;52.398;7.024;2023-03-14T01:49:24;47.95;36.25;57.84;;
58303;Laerm;44109;52.398;7.024;2023-03-14T01:51:59;50.37;38.07;63.97;;
58303;Laerm;44109;52.398;7.024;2023-03-14T01:54:34;48.47;35.36;57.80;;
58303;Laerm;44109;52.398;7.024;2023-03-14T01:57:10;49.36;36.55;59.87;;
58303;Laerm;44109;52.398;7.024;2023-03-14T01:59:42;48.29;35.28;58.00;;
58303;Laerm;44109;52.398;7.024;2023-03-14T02:02:12;50.00;34.79;67.64;;
58303;Laerm;44109;52.398;7.024;2023-03-14T02:04:43;57.19;38.14;83.81;;
58303;Laerm;44109;52.398;7.024;2023-03-14T02:07:16;48.09;34.20;57.80;;
58303;Laerm;44109;52.398;7.024;2023-03-14T02:09:44;41.16;35.62;53.76;;
58303;Laerm;44109;52.398;7.024;2023-03-14T02:12:15;48.01;34.86;58.36;;
58303;Laerm;44109;52.398;7.024;2023-03-14T02:14:44;48.18;35.38;57.88;;
58303;Laerm;44109;52.398;7.024;2023-03-14T02:17:16;47.98;34.72;57.73;;
58303;Laerm;44109;52.398;7.024;2023-03-14T02:20:17;48.06;36.23;57.69;;
58303;Laerm;44109;52.398;7.024;2023-03-14T02:22:47;48.35;36.96;58.97;;
58303;Laerm;44109;52.398;7.024;2023-03-14T02:25:22;48.25;36.02;58.02;;
58303;Laerm;44109;52.398;7.024;2023-03-14T02:27:54;49.37;34.96;61.93;;
58303;Laerm;44109;52.398;7.024;2023-03-14T02:30:25;48.33;35.70;57.74;;
58303;Laerm;44109;52.398;7.024;2023-03-14T02:32:59;49.20;37.03;65.20;;
58303;Laerm;44109;52.398;7.024;2023-03-14T02:35:34;48.49;35.84;59.12;;
58303;Laerm;44109;52.398;7.024;2023-03-14T02:38:11;49.06;36.85;59.01;;
58303;Laerm;44109;52.398;7.024;2023-03-14T02:40:42;48.64;37.02;59.24;;
58303;Laerm;44109;52.398;7.024;2023-03-14T02:43:11;50.28;36.80;69.29;;
58303;Laerm;44109;52.398;7.024;2023-03-14T02:45:42;49.82;37.13;61.79;;
58303;Laerm;44109;52.398;7.024;2023-03-14T02:48:18;50.12;37.43;68.69;;
58303;Laerm;44109;52.398;7.024;2023-03-14T02:50:50;52.01;37.65;73.05;;
58303;Laerm;44109;52.398;7.024;2023-03-14T02:53:25;52.07;33.42;76.11;;
58303;Laerm;44109;52.398;7.024;2023-03-14T02:55:53;62.61;40.12;90.51;;
58303;Laerm;44109;52.398;7.024;2023-03-14T02:58:22;58.54;35.47;82.95;;
58303;Laerm;44109;52.398;7.024;2023-03-14T03:00:50;55.49;36.77;83.32;;
58303;Laerm;44109;52.398;7.024;2023-03-14T03:03:18;62.84;40.27;86.70;;
58303;Laerm;44109;52.398;7.024;2023-03-14T03:05:48;64.28;38.84;87.36;;
58303;Laerm;44109;52.398;7.024;2023-03-14T03:08:17;57.13;39.71;81.42;;
58303;Laerm;44109;52.398;7.024;2023-03-14T03:10:44;50.59;34.79;78.01;;
58303;Laerm;44109;52.398;7.024;2023-03-14T03:13:12;49.58;33.61;74.43;;
58303;Laerm;44109;52.398;7.024;2023-03-14T03:15:41;48.83;33.66;71.97;;
58303;Laerm;44109;52.398;7.024;2023-03-14T03:18:09;50.12;32.43;76.79;;
58303;Laerm;44109;52.398;7.024;2023-03-14T03:20:38;47.27;33.07;57.28;;
58303;Laerm;44109;52.398;7.024;2023-03-14T03:23:06;47.70;32.99;63.52;;
58303;Laerm;44109;52.398;7.024;2023-03-14T03:25:33;50.13;36.59;75.02;;
58303;Laerm;44109;52.398;7.024;2023-03-14T03:28:01;52.36;41.45;68.31;;
58303;Laerm;44109;52.398;7.024;2023-03-14T03:30:37;48.16;36.22;60.73;;
58303;Laerm;44109;52.398;7.024;2023-03-14T03:33:06;48.23;34.74;60.31;;
58303;Laerm;44109;52.398;7.024;2023-03-14T03:35:34;51.33;36.15;82.27;;
58303;Laerm;44109;52.398;7.024;2023-03-14T03:38:02;49.61;36.03;66.24;;
58303;Laerm;44109;52.398;7.024;2023-03-14T03:40:30;49.09;34.96;70.94;;
58303;Laerm;44109;52.398;7.024;2023-03-14T03:42:57;48.03;33.45;57.69;;
58303;Laerm;44109;52.398;7.024;2023-03-14T03:45:25;50.66;35.62;70.57;;
58303;Laerm;44109;52.398;7.024;2023-03-14T03:47:52;48.73;35.47;65.01;;
58303;Laerm;44109;52.398;7.024;2023-03-14T03:50:21;54.85;36.21;78.33;;
58303;Laerm;44109;52.398;7.024;2023-03-14T03:52:49;48.28;37.76;57.42;;
58303;Laerm;44109;52.398;7.024;2023-03-14T03:55:16;48.26;35.25;57.66;;
58303;Laerm;44109;52.398;7.024;2023-03-14T03:57:44;48.15;36.04;58.39;;
58303;Laerm;44109;52.398;7.024;2023-03-14T04:00:12;47.99;36.38;57.54;;
58303;Laerm;44109;52.398;7.024;2023-03-14T04:02:40;47.55;35.52;57.40;;
58303;Laerm;44109;52.398;7.024;2023-03-14T04:05:08;47.13;33.95;57.73;;
58303;Laerm;44109;52.398;7.024;2023-03-14T04:07:37;48.25;35.75;57.45;;
58303;Laerm;44109;52.398;7.024;2023-03-14T04:10:05;48.85;34.36;57.60;;
58303;Laerm;44109;52.398;7.024;2023-03-14T04:12:33;48.99;34.39;63.87;;
58303;Laerm;44109;52.398;7.024;2023-03-14T04:15:00;48.90;36.67;59.08;;
58303;Laerm;44109;52.398;7.024;2023-03-14T04:17:28;49.74;38.64;58.51;;
58303;Laerm;44109;52.398;7.024;2023-03-14T04:19:55;50.99;37.76;64.67;;
58303;Laerm;44109;52.398;7.024;2023-03-14T04:22:23;47.97;36.37;57.93;;
58303;Laerm;44109;52.398;7.024;2023-03-14T04:24:52;49.76;36.67;67.07;;
58303;Laerm;44109;52.398;7.024;2023-03-14T04:27:20;48.82;36.04;57.98;;
58303;Laerm;44109;52.398;7.024;2023-03-14T04:29:47;47.63;36.53;57.62;;
58303;Laerm;44109;52.398;7.024;2023-03-14T04:32:15;47.98;33.68;58.32;;
58303;Laerm;44109;52.398;7.024;2023-03-14T04:34:42;48.95;34.79;57.41;;
58303;Laerm;44109;52.398;7.024;2023-03-14T04:37:10;47.81;34.25;59.93;;
58303;Laerm;44109;52.398;7.024;2023-03-14T04:39:38;48.51;33.99;58.53;;
58303;Laerm;44109;52.398;7.024;2023-03-14T04:42:07;48.06;33.61;69.29;;
58303;Laerm;44109;52.398;7.024;2023-03-14T04:44:35;59.45;36.54;86.01;;
58303;Laerm;44109;52.398;7.024;2023-03-14T04:47:02;54.78;37.93;87.80;;
58303;Laerm;44109;52.398;7.024;2023-03-14T04:49:30;52.24;34.87;80.99;;
58303;Laerm;44109;52.398;7.024;2023-03-14T04:51:57;50.03;36.56;79.16;;
58303;Laerm;44109;52.398;7.024;2023-03-14T04:54:25;49.02;35.75;68.75;;
58303;Laerm;44109;52.398;7.024;2023-03-14T04:56:52;48.88;37.54;61.93;;
58303;Laerm;44109;52.398;7.024;2023-03-14T04:59:21;47.52;33.85;57.88;;
58303;Laerm;44109;52.398;7.024;2023-03-14T05:01:49;47.99;34.16;57.59;;
58303;Laerm;44109;52.398;7.024;2023-03-14T05:04:16;48.77;34.56;57.87;;
58303;Laerm;44109;52.398;7.024;2023-03-14T05:06:44;49.86;38.34;67.63;;
58303;Laerm;44109;52.398;7.024;2023-03-14T05:09:12;49.12;36.07;60.87;;
58303;Laerm;44109;52.398;7.024;2023-03-14T05:11:39;54.60;35.17;70.92;;
58303;Laerm;44109;52.398;7.024;2023-03-14T05:14:07;55.37;37.67;72.71;;
58303;Laerm;44109;52.398;7.024;2023-03-14T05:16:36;55.01;40.09;72.33;;
58303;Laerm;44109;52.398;7.024;2023-03-14T05:19:03;58.65;38.42;80.24;;
58303;Laerm;44109;52.398;7.024;2023-03-14T05:21:31;54.49;38.97;77.18;;
58303;Laerm;44109;52.398;7.024;2023-03-14T05:23:58;53.62;40.00;68.42;;
58303;Laerm;44109;52.398;7.024;2023-03-14T05:26:26;55.27;37.58;74.65;;
58303;Laerm;44109;52.398;7.024;2023-03-14T05:28:53;53.80;38.33;68.72;;
58303;Laerm;44109;52.398;7.024;2023-03-14T05:31:21;52.82;37.65;70.56;;
58303;Laerm;44109;52.398;7.024;2023-03-14T05:33:50;52.26;36.71;74.92;;
58303;Laerm;44109;52.398;7.024;2023-03-14T05:36:17;53.99;37.36;68.42;;
58303;Laerm;44109;52.398;7.024;2023-03-14T05:38:45;53.86;39.40;69.95;;
58303;Laerm;44109;52.398;7.024;2023-03-14T05:41:13;52.83;37.35;65.68;;
58303;Laerm;44109;52.398;7.024;2023-03-14T05:43:40;52.55;37.60;72.20;;
58303;Laerm;44109;52.398;7.024;2023-03-14T05:46:08;57.33;38.44;73.88;;
58303;Laerm;44109;52.398;7.024;2023-03-14T05:48:35;56.88;40.95;72.50;;
58303;Laerm;44109;52.398;7.024;2023-03-14T05:51:05;53.30;38.89;68.00;;
58303;Laerm;44109;52.398;7.024;2023-03-14T05:53:33;53.06;39.21;69.72;;
58303;Laerm;44109;52.398;7.024;2023-03-14T05:56:00;54.54;39.35;70.24;;
58303;Laerm;44109;52.398;7.024;2023-03-14T05:58:28;53.46;40.02;70.85;;
58303;Laerm;44109;52.398;7.024;2023-03-14T06:00:55;51.18;39.07;67.35;;
58303;Laerm;44109;52.398;7.024;2023-03-14T06:03:23;54.66;36.82;77.42;;
58303;Laerm;44109;52.398;7.024;2023-03-14T06:05:51;52.21;40.88;74.78;;
58303;Laerm;44109;52.398;7.024;2023-03-14T06:08:20;52.08;41.20;66.40;;
58303;Laerm;44109;52.398;7.024;2023-03-14T06:10:48;51.40;41.78;66.64;;
58303;Laerm;44109;52.398;7.024;2023-03-14T06:13:15;51.26;42.14;66.52;;
58303;Laerm;44109;52.398;7.024;2023-03-14T06:15:43;53.31;39.87;66.28;;
58303;Laerm;44109;52.398;7.024;2023-03-14T06:18:12;51.58;42.12;65.46;;
58303;Laerm;44109;52.398;7.024;2023-03-14T06:20:40;51.84;42.77;66.08;;
58303;Laerm;44109;52.398;7.024;2023-03-14T06:23:08;52.55;42.98;63.13;;
58303;Laerm;44109;52.398;7.024;2023-03-14T06:25:38;51.69;40.06;69.03;;
58303;Laerm;44109;52.398;7.024;2023-03-14T06:28:05;61.83;41.23;78.30;;
58303;Laerm;44109;52.398;7.024;2023-03-14T06:30:33;50.78;40.67;63.15;;
58303;Laerm;44109;52.398;7.024;2023-03-14T06:33:01;58.04;42.12;81.45;;
58303;Laerm;44109;52.398;7.024;2023-03-14T06:35:28;54.56;38.17;76.24;;
58303;Laerm;44109;52.398;7.024;2023-03-14T06:37:56;55.86;41.48;77.02;;
58303;Laerm;44109;52.398;7.024;2023-03-14T06:40:24;52.17;41.64;69.05;;
58303;Laerm;44109;52.398;7.024;2023-03-14T06:42:53;51.97;40.24;67.06;;
58303;Laerm;44109;52.398;7.024;2023-03-14T06:45:20;51.35;40.81;64.71;;
58303;Laerm;44109;52.398;7.024;2023-03-14T06:47:48;54.78;42.07;74.67;;
58303;Laerm;44109;52.398;7.024;2023-03-14T06:50:16;52.28;43.48;64.59;;
58303;Laerm;44109;52.398;7.024;2023-03-14T06:52:43;51.57;43.50;66.09;;
58303;Laerm;44109;52.398;7.024;2023-03-14T06:55:14;51.61;42.91;67.04;;
58303;Laerm;44109;52.398;7.024;2023-03-14T06:57:43;54.05;43.84;77.39;;
58303;Laerm;44109;52.398;7.024;2023-03-14T07:00:14;57.07;43.50;84.99;;
58303;Laerm;44109;52.398;7.024;2023-03-14T07:02:41;57.93;43.04;83.69;;
58303;Laerm;44109;52.398;7.024;2023-03-14T07:05:09;58.60;42.16;86.77;;
58303;Laerm;44109;52.398;7.024;2023-03-14T07:07:37;62.96;45.75;85.77;;
58303;Laerm;44109;52.398;7.024;2023-03-14T07:10:06;63.20;48.27;85.00;;
58303;Laerm;44109;52.398;7.024;2023-03-14T07:12:34;60.14;45.78;83.82;;
58303;Laerm;44109;52.398;7.024;2023-03-14T07:15:03;61.03;48.51;84.86;;
58303;Laerm;44109;52.398;7.024;2023-03-14T07:17:32;60.22;46.23;78.97;;
58303;Laerm;44109;52.398;7.024;2023-03-14T07:19:59;57.95;44.79;82.52;;
58303;Laerm;44109;52.398;7.024;2023-03-14T07:22:27;55.67;42.43;77.85;;
58303;Laerm;44109;52.398;7.024;2023-03-14T07:24:54;54.92;44.25;75.84;;
58303;Laerm;44109;52.398;7.024;2023-03-14T07:27:22;53.81;43.60;74.32;;
58303;Laerm;44109;52.398;7.024;2023-03-14T07:29:50;53.01;42.13;76.05;;
58303;Laerm;44109;52.398;7.024;2023-03-14T07:32:17;59.88;44.65;87.56;;
58303;Laerm;44109;52.398;7.024;2023-03-14T07:34:46;56.11;41.65;78.13;;
58303;Laerm;44109;52.398;7.024;2023-03-14T07:37:14;54.38;41.93;75.55;;
58303;Laerm;44109;52.398;7.024;2023-03-14T07:39:41;53.96;41.81;77.59;;
58303;Laerm;44109;52.398;7.024;2023-03-14T07:42:09;52.18;40.84;72.14;;
58303;Laerm;44109;52.398;7.024;2023-03-14T07:44:37;53.72;42.71;76.84;;
58303;Laerm;44109;52.398;7.024;2023-03-14T07:47:04;52.62;42.51;74.98;;
58303;Laerm;44109;52.398;7.024;2023-03-14T07:49:32;52.28;42.60;79.02;;
58303;Laerm;44109;52.398;7.024;2023-03-14T07:52:01;51.78;42.05;74.24;;
58303;Laerm;44109;52.398;7.024;2023-03-14T07:54:29;53.43;40.32;72.00;;
58303;Laerm;44109;52.398;7.024;2023-03-14T07:56:56;56.48;42.10;80.29;;
58303;Laerm;44109;52.398;7.024;2023-03-14T07:59:25;60.51;45.54;83.17;;
58303;Laerm;44109;52.398;7.024;2023-03-14T08:01:52;57.00;44.29;79.66;;
58303;Laerm;44109;52.398;7.024;2023-03-14T08:04:20;58.88;44.08;85.31;;
58303;Laerm;44109;52.398;7.024;2023-03-14T08:06:47;63.84;46.65;88.89;;
58303;Laerm;44109;52.398;7.024;2023-03-14T08:09:16;61.91;48.14;88.18;;
58303;Laerm;44109;52.398;7.024;2023-03-14T08:11:44;62.05;46.88;87.59;;
58303;Laerm;44109;52.398;7.024;2023-03-14T08:14:11;63.64;46.13;86.16;;
58303;Laerm;44109;52.398;7.024;2023-03-14T08:16:39;69.48;48.23;94.69;;
58303;Laerm;44109;52.398;7.024;2023-03-14T08:19:06;66.85;49.08;94.25;;
58303;Laerm;44109;52.398;7.024;2023-03-14T08:21:34;76.20;50.58;97.13;;
58303;Laerm;44109;52.398;7.024;2023-03-14T08:24:02;78.71;57.11;101.61;;
58303;Laerm;44109;52.398;7.024;2023-03-14T08:26:31;68.54;49.47;90.26;;
58303;Laerm;44109;52.398;7.024;2023-03-14T08:28:59;64.51;47.74;88.65;;
58303;Laerm;44109;52.398;7.024;2023-03-14T08:31:26;64.23;47.41;86.98;;
58303;Laerm;44109;52.398;7.024;2023-03-14T08:33:54;71.24;50.12;98.12;;
58303;Laerm;44109;52.398;7.024;2023-03-14T08:36:21;58.18;43.31;82.95;;
58303;Laerm;44109;52.398;7.024;2023-03-14T08:38:49;61.57;44.88;85.89;;
58303;Laerm;44109;52.398;7.024;2023-03-14T08:41:16;57.71;45.04;83.17;;
58303;Laerm;44109;52.398;7.024;2023-03-14T08:43:45;64.06;46.96;86.96;;
58303;Laerm;44109;52.398;7.024;2023-03-14T08:46:13;63.05;45.28;88.62;;
58303;Laerm;44109;52.398;7.024;2023-03-14T08:48:41;63.37;46.06;90.33;;
58303;Laerm;44109;52.398;7.024;2023-03-14T08:51:11;61.68;45.32;87.22;;
58303;Laerm;44109;52.398;7.024;2023-03-14T08:53:40;65.71;46.36;92.01;;
58303;Laerm;44109;52.398;7.024;2023-03-14T08:56:09;68.48;47.64;93.58;;
58303;Laerm;44109;52.398;7.024;2023-03-14T08:58:37;68.17;48.68;95.41;;
58303;Laerm;44109;52.398;7.024;2023-03-14T09:01:09;67.34;46.75;92.75;;
58303;Laerm;44109;52.398;7.024;2023-03-14T09:03:38;69.75;48.23;101.56;;
58303;Laerm;44109;52.398;7.024;2023-03-14T09:06:09;74.64;53.12;101.81;;
58303;Laerm;44109;52.398;7.024;2023-03-14T09:08:37;75.07;53.32;100.94;;
58303;Laerm;44109;52.398;7.024;2023-03-14T09:11:07;73.44;51.83;99.96;;
58303;Laerm;44109;52.398;7.024;2023-03-14T09:13:35;72.08;52.39;103.09;;
58303;Laerm;44109;52.398;7.024;2023-03-14T09:16:04;72.31;51.06;102.66;;
58303;Laerm;44109;52.398;7.024;2023-03-14T09:18:33;72.74;53.08;96.46;;
58303;Laerm;44109;52.398;7.024;2023-03-14T09:21:01;74.20;52.97;101.18;;
58303;Laerm;44109;52.398;7.024;2023-03-14T09:23:29;72.67;50.65;101.19;;
58303;Laerm;44109;52.398;7.024;2023-03-14T09:25:57;70.27;50.11;101.18;;
58303;Laerm;44109;52.398;7.024;2023-03-14T09:28:26;67.30;47.72;99.31;;
58303;Laerm;44109;52.398;7.024;2023-03-14T09:30:54;62.56;47.17;85.17;;
58303;Laerm;44109;52.398;7.024;2023-03-14T09:33:22;60.05;45.88;85.22;;
58303;Laerm;44109;52.398;7.024;2023-03-14T09:35:51;56.84;43.33;81.33;;
58303;Laerm;44109;52.398;7.024;2023-03-14T09:38:18;61.69;44.76;93.82;;
58303;Laerm;44109;52.398;7.024;2023-03-14T09:40:47;53.98;42.31;76.39;;
58303;Laerm;44109;52.398;7.024;2023-03-14T09:43:16;50.94;40.98;72.41;;
58303;Laerm;44109;52.398;7.024;2023-03-14T09:45:46;52.35;40.78;73.90;;
58303;Laerm;44109;52.398;7.024;2023-03-14T09:48:16;54.87;43.32;72.11;;
58303;Laerm;44109;52.398;7.024;2023-03-14T09:50:52;49.69;40.54;64.18;;
58303;Laerm;44109;52.398;7.024;2023-03-14T09:53:25;48.98;40.99;65.70;;
58303;Laerm;44109;52.398;7.024;2023-03-14T09:55:58;51.24;41.86;68.63;;
58303;Laerm;44109;52.398;7.024;2023-03-14T09:58:27;50.75;40.04;69.23;;
58303;Laerm;44109;52.398;7.024;2023-03-14T10:00:57;52.14;37.95;70.92;;
58303;Laerm;44109;52.398;7.024;2023-03-14T10:03:29;52.69;39.42;74.44;;
58303;Laerm;44109;52.398;7.024;2023-03-14T10:06:00;50.10;39.60;76.31;;
58303;Laerm;44109;52.398;7.024;2023-03-14T10:08:28;50.82;40.35;69.46;;
58303;Laerm;44109;52.398;7.024;2023-03-14T10:10:56;48.71;38.63;66.64;;
58303;Laerm;44109;52.398;7.024;2023-03-14T10:13:27;47.41;36.49;65.28;;
58303;Laerm;44109;52.398;7.024;2023-03-14T10:16:00;50.45;39.44;67.28;;
58303;Laerm;44109;52.398;7.024;2023-03-14T10:18:30;56.51;40.26;76.96;;
58303;Laerm;44109;52.398;7.024;2023-03-14T10:21:09;50.46;39.47;67.46;;
58303;Laerm;44109;52.398;7.024;2023-03-14T10:23:43;50.41;39.09;70.34;;
58303;Laerm;44109;52.398;7.024;2023-03-14T10:26:15;49.22;39.54;63.72;;
58303;Laerm;44109;52.398;7.024;2023-03-14T10:28:46;49.78;39.64;67.23;;
58303;Laerm;44109;52.398;7.024;2023-03-14T10:31:15;48.37;37.74;64.04;;
58303;Laerm;44109;52.398;7.024;2023-03-14T10:33:58;50.01;39.41;66.24;;
58303;Laerm;44109;52.398;7.024;2023-03-14T10:36:30;49.28;39.12;62.52;;
58303;Laerm;44109;52.398;7.024;2023-03-14T10:39:23;48.69;38.53;64.81;;
58303;Laerm;44109;52.398;7.024;2023-03-14T10:41:54;48.53;37.67;59.38;;
58303;Laerm;44109;52.398;7.024;2023-03-14T10:44:25;51.72;38.90;75.99;;
58303;Laerm;44109;52.398;7.024;2023-03-14T10:47:01;49.27;37.94;64.29;;
58303;Laerm;44109;52.398;7.024;2023-03-14T10:49:32;50.43;38.81;65.91;;
58303;Laerm;44109;52.398;7.024;2023-03-14T10:52:18;53.27;37.70;71.78;;
58303;Laerm;44109;52.398;7.024;2023-03-14T10:54:54;50.60;38.48;68.93;;
58303;Laerm;44109;52.398;7.024;2023-03-14T10:57:24;52.68;39.11;69.22;;
58303;Laerm;44109;52.398;7.024;2023-03-14T10:59:53;49.16;38.71;64.75;;
58303;Laerm;44109;52.398;7.024;2023-03-14T11:05:39;49.10;37.89;66.82;;
58303;Laerm;44109;52.398;7.024;2023-03-14T11:08:16;55.48;39.16;76.68;;
58303;Laerm;44109;52.398;7.024;2023-03-14T11:10:54;49.72;38.96;69.03;;
58303;Laerm;44109;52.398;7.024;2023-03-14T11:13:27;60.65;38.87;89.90;;
58303;Laerm;44109;52.398;7.024;2023-03-14T11:16:06;60.25;43.72;82.60;;
58303;Laerm;44109;52.398;7.024;2023-03-14T11:18:57;55.47;45.37;73.34;;
58303;Laerm;44109;52.398;7.024;2023-03-14T11:21:32;55.40;40.26;70.64;;
58303;Laerm;44109;52.398;7.024;2023-03-14T11:24:29;48.74;38.44;69.28;;
58303;Laerm;44109;52.398;7.024;2023-03-14T11:27:03;47.65;37.03;63.84;;
58303;Laerm;44109;52.398;7.024;2023-03-14T11:29:39;52.76;39.24;68.93;;
58303;Laerm;44109;52.398;7.024;2023-03-14T11:32:16;48.65;37.24;65.82;;
58303;Laerm;44109;52.398;7.024;2023-03-14T11:34:52;46.90;37.00;63.96;;
58303;Laerm;44109;52.398;7.024;2023-03-14T11:37:27;49.01;38.68;66.98;;
58303;Laerm;44109;52.398;7.024;2023-03-14T11:40:14;57.41;40.65;78.54;;
58303;Laerm;44109;52.398;7.024;2023-03-14T11:42:50;59.64;43.20;79.33;;
58303;Laerm;44109;52.398;7.024;2023-03-14T11:45:29;55.37;41.83;81.59;;
58303;Laerm;44109;52.398;7.024;2023-03-14T11:48:17;54.73;40.91;75.22;;
58303;Laerm;44109;52.398;7.024;2023-03-14T11:50:52;51.28;39.56;69.09;;
58303;Laerm;44109;52.398;7.024;2023-03-14T11:53:36;51.03;38.79;70.87;;
58303;Laerm;44109;52.398;7.024;2023-03-14T11:56:17;47.13;37.08;62.86;;
58303;Laerm;44109;52.398;7.024;2023-03-14T11:58:55;46.46;36.50;59.46;;
58303;Laerm;44109;52.398;7.024;2023-03-14T12:01:36;47.29;36.83;59.03;;
58303;Laerm;44109;52.398;7.024;2023-03-14T12:04:20;51.48;38.35;73.28;;
58303;Laerm;44109;52.398;7.024;2023-03-14T12:06:51;56.45;38.41;79.97;;
58303;Laerm;44109;52.398;7.024;2023-03-14T12:09:20;51.78;37.42;76.23;;
58303;Laerm;44109;52.398;7.024;2023-03-14T12:11:56;47.39;37.29;61.86;;
58303;Laerm;44109;52.398;7.024;2023-03-14T12:14:28;54.88;37.22;75.72;;
58303;Laerm;44109;52.398;7.024;2023-03-14T12:17:04;49.19;37.82;64.48;;
58303;Laerm;44109;52.398;7.024;2023-03-14T12:19:35;51.73;39.88;67.88;;
58303;Laerm;44109;52.398;7.024;2023-03-14T12:22:26;55.29;39.47;75.98;;
58303;Laerm;44109;52.398;7.024;2023-03-14T12:25:05;51.75;37.81;74.57;;
58303;Laerm;44109;52.398;7.024;2023-03-14T12:28:02;50.92;40.60;67.97;;
58303;Laerm;44109;52.398;7.024;2023-03-14T12:30:33;55.22;36.22;79.51;;
58303;Laerm;44109;52.398;7.024;2023-03-14T12:33:30;56.19;38.75;74.18;;
58303;Laerm;44109;52.398;7.024;2023-03-14T12:39:13;47.82;37.86;65.40;;
58303;Laerm;44109;52.398;7.024;2023-03-14T12:41:51;47.51;37.27;67.42;;
58303;Laerm;44109;52.398;7.024;2023-03-14T12:44:45;53.52;37.18;72.16;;
58303;Laerm;44109;52.398;7.024;2023-03-14T12:47:46;57.05;40.61;76.57;;
58303;Laerm;44109;52.398;7.024;2023-03-14T12:50:25;57.50;40.34;79.80;;
58303;Laerm;44109;52.398;7.024;2023-03-14T12:53:16;50.63;37.57;66.41;;
58303;Laerm;44109;52.398;7.024;2023-03-14T12:55:58;50.14;36.88;69.62;;
58303;Laerm;44109;52.398;7.024;2023-03-14T12:58:35;52.35;35.84;72.37;;
58303;Laerm;44109;52.398;7.024;2023-03-14T13:01:16;48.49;35.48;63.35;;
58303;Laerm;44109;52.398;7.024;2023-03-14T13:03:50;50.55;35.77;68.95;;
58303;Laerm;44109;52.398;7.024;2023-03-14T13:06:47;51.57;38.72;75.55;;
58303;Laerm;44109;52.398;7.024;2023-03-14T13:09:52;50.30;39.39;65.17;;
58303;Laerm;44109;52.398;7.024;2023-03-14T13:12:27;55.55;39.89;79.55;;
58303;Laerm;44109;52.398;7.024;2023-03-14T13:15:00;63.04;42.12;85.64;;
58303;Laerm;44109;52.398;7.024;2023-03-14T13:17:33;52.74;42.25;68.26;;
58303;Laerm;44109;52.398;7.024;2023-03-14T13:20:11;53.32;38.58;74.96;;
58303;Laerm;44109;52.398;7.024;2023-03-14T13:22:47;57.54;38.28;77.96;;
58303;Laerm;44109;52.398;7.024;2023-03-14T13:25:16;58.07;42.13;75.55;;
58303;Laerm;44109;52.398;7.024;2023-03-14T13:27:44;55.46;40.04;71.50;;
58303;Laerm;44109;52.398;7.024;2023-03-14T13:30:18;56.86;40.20;75.93;;
58303;Laerm;44109;52.398;7.024;2023-03-14T13:32:50;54.54;41.50;75.05;;
58303;Laerm;44109;52.398;7.024;2023-03-14T13:35:23;58.45;40.85;80.83;;
58303;Laerm;44109;52.398;7.024;2023-03-14T13:37:57;51.78;37.84;71.82;;
58303;Laerm;44109;52.398;7.024;2023-03-14T13:40:30;52.85;37.97;68.58;;
58303;Laerm;44109;52.398;7.024;2023-03-14T13:43:13;51.58;36.95;75.26;;
58303;Laerm;44109;52.398;7.024;2023-03-14T13:45:48;51.08;36.45;73.89;;
58303;Laerm;44109;52.398;7.024;2023-03-14T13:48:19;55.29;35.82;75.83;;
58303;Laerm;44109;52.398;7.024;2023-03-14T13:50:55;49.59;37.06;67.48;;
58303;Laerm;44109;52.398;7.024;2023-03-14T13:53:23;51.74;35.13;75.44;;
58303;Laerm;44109;52.398;7.024;2023-03-14T13:55:52;49.21;34.57;67.75;;
58303;Laerm;44109;52.398;7.024;2023-03-14T13:58:24;58.67;38.59;78.59;;
58303;Laerm;44109;52.398;7.024;2023-03-14T14:01:06;50.96;36.41;69.48;;
58303;Laerm;44109;52.398;7.024;2023-03-14T14:03:44;49.32;36.12;65.41;;
58303;Laerm;44109;52.398;7.024;2023-03-14T14:06:31;51.63;36.65;70.75;;
58303;Laerm;44109;52.398;7.024;2023-03-14T14:09:04;50.46;36.38;66.99;;
58303;Laerm;44109;52.398;7.024;2023-03-14T14:11:43;49.67;36.28;65.94;;
58303;Laerm;44109;52.398;7.024;2023-03-14T14:14:18;54.53;37.78;77.58;;
58303;Laerm;44109;52.398;7.024;2023-03-14T14:16:48;49.00;36.75;64.03;;